Saturday, December 16, 2017, 9:15 PM EST
Back to Local

KITH, Ithaca, Ithaca Tompkins Regional Airport

Location: Ithaca, NY, United States Lat: 42.491
Local Time: 9:15 PM EST ( 2:15 GMT) Lon: -76.458
Time Zone: US/Eastern Elev: 1099 ft

Show me the last for .
Show Coded

Time T Td Feel RH Dir Speed Gust Alt SLP Vis Weather Sky Remarks
2017-12-16 20:56 22 18 13 84 320° 7 - 30.15 30.20 10 OVC024 1-hr Precip Total: Trace
2017-12-16 19:56 22 19 14 88 310° 6 - 30.14 30.19 9 -SN OVC024 1-hr Precip Total: Trace
2017-12-16 18:56 22 19 16 88 310° 5 - 30.11 30.16 7 -SN OVC024 1-hr Precip Total: Trace
6-hr Precip Total (7pm): 0.00"
6-hr Min Temp (7pm): 21.9°F
6-hr Max Temp (7pm): 25.0°F
2017-12-16 17:56 22 19 16 88 350° 5 - 30.08 30.12 4 -SN BR OVC024 1-hr Precip Total: Trace
2017-12-16 16:56 23 20 14 87 340° 8 - 30.04 30.09 2 -SN BR OVC012 1-hr Precip Total: Trace
2017-12-16 15:56 24 22 13 91 310° 12 - 30.01 30.06 2 -SN BR BKN009 OVC020 1-hr Precip Total: Trace
6-hr Precip Total (4pm): 0.00"
2017-12-16 14:56 24 22 14 91 290° 10 - 29.98 30.02 2 -SN BR OVC009 1-hr Precip Total: Trace
2017-12-16 13:56 25 22 14 87 290° 12 - 29.94 29.99 2 -SN BR BKN014 OVC024 1-hr Precip Total: Trace
2017-12-16 12:56 25 21 14 84 280° 13 - 29.92 29.97 2 -SN BR SCT014 OVC028 1-hr Precip Total: Trace
6-hr Precip Total (1pm): 0.01"
6-hr Min Temp (1pm): 21.9°F
6-hr Max Temp (1pm): 28.9°F
2017-12-16 12:07 25 21 15 85 280° 9 - 29.92 - 2 -SN BR BKN011 OVC041 1-hr Precip Total: Trace
2017-12-16 12:03 25 21 14 85 280° 12 - 29.92 - 4 -SN BR FEW011 BKN014 OVC055 1-hr Precip Total: Trace
2017-12-16 11:56 25 21 16 84 300° 9 - 29.92 29.97 2 -SN BR BKN011 OVC041 1-hr Precip Total: 0.01"
2017-12-16 10:56 28 23 - 81 - Calm - 29.94 29.98 0 SN OVC008 1-hr Precip Total: Trace
2017-12-16 10:03 25 21 - 85 - Calm - 29.94 - 1 -SN BR FEW008 OVC015 1-hr Precip Total: Trace
2017-12-16 09:56 25 22 19 87 240° 5 - 29.94 29.98 1 -SN BR OVC021 1-hr Precip Total: Trace
6-hr Precip Total (10am): 0.00"
2017-12-16 08:56 23 20 17 87 240° 5 - 29.92 29.96 1 -SN BR OVC021 1-hr Precip Total: Trace
2017-12-16 07:56 22 20 14 91 250° 6 - 29.90 29.95 1 -SN BR BKN018 OVC023 1-hr Precip Total: Trace
2017-12-16 07:33 21 19 15 92 240° 5 - 29.90 - 0 -SN BR BKN016 OVC023 1-hr Precip Total: Trace
2017-12-16 06:56 23 20 16 87 250° 6 - 29.88 29.93 4 -SN BR SCT012 BKN020 OVC030 1-hr Precip Total: Trace
6-hr Precip Total (7am): 0.00"
6-hr Min Temp (7am): 21.9°F
6-hr Max Temp (7am): 24.1°F
2017-12-16 06:30 23 19 15 85 280° 7 - 29.87 - 7 -SN SCT018 BKN025 OVC055 1-hr Precip Total: Trace
2017-12-16 06:12 23 19 14 85 270° 8 - 29.87 - 7 -SN SCT018 BKN025 OVC055 1-hr Precip Total: Trace
2017-12-16 05:56 23 18 13 80 270° 9 - 29.87 29.92 9 -SN FEW018 BKN037 OVC060 1-hr Precip Total: Trace
2017-12-16 04:56 23 16 11 74 260° 13 - 29.85 29.90 10 FEW033 BKN041 OVC095 None
2017-12-16 03:56 23 16 12 74 260° 10 - 29.85 29.89 10 OVC036 1-hr Precip Total: Trace
6-hr Precip Total (4am): 0.00"
2017-12-16 02:56 22 19 13 88 220° 8 - 29.85 29.89 7 -SN FEW024 OVC032 1-hr Precip Total: Trace
2017-12-16 01:56 22 17 14 81 220° 6 - 29.82 29.87 9 -SN FEW016 BKN034 OVC044 1-hr Precip Total: Trace
2017-12-16 00:56 22 17 14 81 240° 6 - 29.80 29.85 3 -SN FEW022 BKN026 OVC038 1-hr Precip Total: Trace
6-hr Precip Total (1am): 0.00"
6-hr Min Temp (1am): 19.9°F
6-hr Max Temp (1am): 21.9°F
2017-12-15 23:56 22 16 16 77 240° 5 - 29.80 29.85 9 BKN026 OVC036 1-hr Precip Total: Trace
2017-12-15 22:56 22 16 13 77 210° 8 - 29.79 29.84 9 -SN BKN040 OVC050 1-hr Precip Total: Trace
24-hr Min Temp (11pm): -0.0°F
24-hr Max Temp (11pm): 24.1°F
2017-12-15 21:56 20 15 15 81 190° 3 - 29.79 29.84 10 SCT033 BKN046 BKN075 None

Support USWX by starting your Amazon purchase here.